sensor_id;sensor_type;location;lat;lon;timestamp;P1;durP1;ratioP1;P2;durP2;ratioP2
23684;SDS011;12020;51.384;6.908;2023-03-11T00:00:19;4.53;;;2.67;;
23684;SDS011;12020;51.384;6.908;2023-03-11T00:02:47;3.93;;;2.63;;
23684;SDS011;12020;51.384;6.908;2023-03-11T00:05:16;4.40;;;3.33;;
23684;SDS011;12020;51.384;6.908;2023-03-11T00:07:48;3.90;;;2.87;;
23684;SDS011;12020;51.384;6.908;2023-03-11T00:10:24;4.27;;;2.90;;
23684;SDS011;12020;51.384;6.908;2023-03-11T00:17:55;5.03;;;3.00;;
23684;SDS011;12020;51.384;6.908;2023-03-11T00:22:52;5.47;;;2.80;;
23684;SDS011;12020;51.384;6.908;2023-03-11T00:25:19;7.77;;;2.70;;
23684;SDS011;12020;51.384;6.908;2023-03-11T00:27:46;5.63;;;3.00;;
23684;SDS011;12020;51.384;6.908;2023-03-11T00:30:13;6.53;;;3.27;;
23684;SDS011;12020;51.384;6.908;2023-03-11T00:32:57;6.67;;;3.20;;
23684;SDS011;12020;51.384;6.908;2023-03-11T00:35:25;6.13;;;3.23;;
23684;SDS011;12020;51.384;6.908;2023-03-11T00:37:56;4.40;;;2.63;;
23684;SDS011;12020;51.384;6.908;2023-03-11T00:40:25;3.87;;;2.80;;
23684;SDS011;12020;51.384;6.908;2023-03-11T00:42:52;4.67;;;2.77;;
23684;SDS011;12020;51.384;6.908;2023-03-11T00:47:52;5.37;;;2.77;;
23684;SDS011;12020;51.384;6.908;2023-03-11T00:55:22;4.77;;;2.53;;
23684;SDS011;12020;51.384;6.908;2023-03-11T00:57:53;4.63;;;2.20;;
23684;SDS011;12020;51.384;6.908;2023-03-11T01:00:23;2.77;;;1.97;;
23684;SDS011;12020;51.384;6.908;2023-03-11T01:02:51;5.00;;;2.17;;
23684;SDS011;12020;51.384;6.908;2023-03-11T01:05:21;4.87;;;2.03;;
23684;SDS011;12020;51.384;6.908;2023-03-11T01:07:51;2.73;;;1.87;;
23684;SDS011;12020;51.384;6.908;2023-03-11T01:10:19;7.37;;;2.03;;
23684;SDS011;12020;51.384;6.908;2023-03-11T01:12:45;3.10;;;1.93;;
23684;SDS011;12020;51.384;6.908;2023-03-11T01:15:17;4.70;;;2.30;;
23684;SDS011;12020;51.384;6.908;2023-03-11T01:17:50;5.80;;;2.37;;
23684;SDS011;12020;51.384;6.908;2023-03-11T01:20:18;3.53;;;1.90;;
23684;SDS011;12020;51.384;6.908;2023-03-11T01:22:48;4.73;;;2.00;;
23684;SDS011;12020;51.384;6.908;2023-03-11T01:25:16;8.07;;;2.00;;
23684;SDS011;12020;51.384;6.908;2023-03-11T01:27:44;4.43;;;1.67;;
23684;SDS011;12020;51.384;6.908;2023-03-11T01:30:18;4.77;;;1.90;;
23684;SDS011;12020;51.384;6.908;2023-03-11T01:32:45;5.37;;;1.67;;
23684;SDS011;12020;51.384;6.908;2023-03-11T01:35:21;3.97;;;1.60;;
23684;SDS011;12020;51.384;6.908;2023-03-11T01:37:49;6.53;;;1.90;;
23684;SDS011;12020;51.384;6.908;2023-03-11T01:40:40;4.90;;;1.70;;
23684;SDS011;12020;51.384;6.908;2023-03-11T01:46:32;6.60;;;2.07;;
23684;SDS011;12020;51.384;6.908;2023-03-11T01:49:04;3.80;;;1.90;;
23684;SDS011;12020;51.384;6.908;2023-03-11T01:51:46;5.93;;;1.90;;
23684;SDS011;12020;51.384;6.908;2023-03-11T01:57:12;4.27;;;1.87;;
23684;SDS011;12020;51.384;6.908;2023-03-11T01:59:42;6.70;;;2.00;;
23684;SDS011;12020;51.384;6.908;2023-03-11T02:05:16;4.37;;;1.77;;
23684;SDS011;12020;51.384;6.908;2023-03-11T02:07:47;6.83;;;1.90;;
23684;SDS011;12020;51.384;6.908;2023-03-11T02:10:14;6.53;;;1.87;;
23684;SDS011;12020;51.384;6.908;2023-03-11T02:12:42;5.87;;;2.20;;
23684;SDS011;12020;51.384;6.908;2023-03-11T02:15:09;6.23;;;2.07;;
23684;SDS011;12020;51.384;6.908;2023-03-11T02:17:37;10.80;;;3.03;;
23684;SDS011;12020;51.384;6.908;2023-03-11T02:23:12;5.27;;;1.93;;
23684;SDS011;12020;51.384;6.908;2023-03-11T02:25:41;8.33;;;2.23;;
23684;SDS011;12020;51.384;6.908;2023-03-11T02:33:44;3.53;;;1.80;;
23684;SDS011;12020;51.384;6.908;2023-03-11T02:36:32;5.67;;;1.90;;
23684;SDS011;12020;51.384;6.908;2023-03-11T02:39:02;5.20;;;1.90;;
23684;SDS011;12020;51.384;6.908;2023-03-11T02:41:30;8.07;;;2.27;;
23684;SDS011;12020;51.384;6.908;2023-03-11T02:43:58;8.23;;;1.80;;
23684;SDS011;12020;51.384;6.908;2023-03-11T02:46:27;8.20;;;1.63;;
23684;SDS011;12020;51.384;6.908;2023-03-11T02:49:00;9.00;;;1.83;;
23684;SDS011;12020;51.384;6.908;2023-03-11T02:53:58;5.23;;;1.67;;
23684;SDS011;12020;51.384;6.908;2023-03-11T02:56:31;8.10;;;1.83;;
23684;SDS011;12020;51.384;6.908;2023-03-11T02:58:59;5.00;;;1.70;;
23684;SDS011;12020;51.384;6.908;2023-03-11T03:01:40;7.50;;;1.83;;
23684;SDS011;12020;51.384;6.908;2023-03-11T03:06:38;7.80;;;2.33;;
23684;SDS011;12020;51.384;6.908;2023-03-11T03:11:37;5.50;;;2.10;;
23684;SDS011;12020;51.384;6.908;2023-03-11T03:14:10;4.30;;;2.03;;
23684;SDS011;12020;51.384;6.908;2023-03-11T03:16:35;5.83;;;1.70;;
23684;SDS011;12020;51.384;6.908;2023-03-11T03:19:03;11.67;;;2.90;;
23684;SDS011;12020;51.384;6.908;2023-03-11T03:21:30;8.37;;;2.10;;
23684;SDS011;12020;51.384;6.908;2023-03-11T03:23:58;5.63;;;2.13;;
23684;SDS011;12020;51.384;6.908;2023-03-11T03:26:25;5.70;;;1.77;;
23684;SDS011;12020;51.384;6.908;2023-03-11T03:31:25;7.80;;;1.97;;
23684;SDS011;12020;51.384;6.908;2023-03-11T03:33:55;5.50;;;2.10;;
23684;SDS011;12020;51.384;6.908;2023-03-11T03:36:29;4.80;;;1.80;;
23684;SDS011;12020;51.384;6.908;2023-03-11T03:38:58;7.50;;;1.70;;
23684;SDS011;12020;51.384;6.908;2023-03-11T03:43:56;7.30;;;1.93;;
23684;SDS011;12020;51.384;6.908;2023-03-11T03:48:55;5.67;;;2.07;;
23684;SDS011;12020;51.384;6.908;2023-03-11T03:51:21;4.60;;;1.70;;
23684;SDS011;12020;51.384;6.908;2023-03-11T03:53:52;5.33;;;1.67;;
23684;SDS011;12020;51.384;6.908;2023-03-11T03:56:24;5.63;;;2.17;;
23684;SDS011;12020;51.384;6.908;2023-03-11T03:58:50;6.10;;;2.03;;
23684;SDS011;12020;51.384;6.908;2023-03-11T04:01:17;6.57;;;1.60;;
23684;SDS011;12020;51.384;6.908;2023-03-11T04:03:43;4.97;;;1.57;;
23684;SDS011;12020;51.384;6.908;2023-03-11T04:06:10;6.03;;;1.70;;
23684;SDS011;12020;51.384;6.908;2023-03-11T04:08:43;7.23;;;2.10;;
23684;SDS011;12020;51.384;6.908;2023-03-11T04:11:09;6.80;;;1.97;;
23684;SDS011;12020;51.384;6.908;2023-03-11T04:13:42;4.60;;;1.80;;
23684;SDS011;12020;51.384;6.908;2023-03-11T04:16:20;2.33;;;1.43;;
23684;SDS011;12020;51.384;6.908;2023-03-11T04:18:50;5.37;;;1.70;;
23684;SDS011;12020;51.384;6.908;2023-03-11T04:21:17;4.17;;;1.97;;
23684;SDS011;12020;51.384;6.908;2023-03-11T04:23:42;8.07;;;2.30;;
23684;SDS011;12020;51.384;6.908;2023-03-11T04:26:10;8.70;;;1.90;;
23684;SDS011;12020;51.384;6.908;2023-03-11T04:28:38;4.23;;;1.80;;
23684;SDS011;12020;51.384;6.908;2023-03-11T04:31:04;4.60;;;1.80;;
23684;SDS011;12020;51.384;6.908;2023-03-11T04:33:30;6.10;;;1.60;;
23684;SDS011;12020;51.384;6.908;2023-03-11T04:36:06;6.83;;;1.60;;
23684;SDS011;12020;51.384;6.908;2023-03-11T04:38:34;5.93;;;1.87;;
23684;SDS011;12020;51.384;6.908;2023-03-11T04:41:05;5.20;;;1.53;;
23684;SDS011;12020;51.384;6.908;2023-03-11T04:46:14;5.30;;;1.57;;
23684;SDS011;12020;51.384;6.908;2023-03-11T04:48:40;9.20;;;2.03;;
23684;SDS011;12020;51.384;6.908;2023-03-11T04:51:07;7.53;;;1.80;;
23684;SDS011;12020;51.384;6.908;2023-03-11T04:53:33;6.97;;;1.53;;
23684;SDS011;12020;51.384;6.908;2023-03-11T04:55:59;4.93;;;2.10;;
23684;SDS011;12020;51.384;6.908;2023-03-11T04:58:29;9.20;;;1.80;;
23684;SDS011;12020;51.384;6.908;2023-03-11T05:00:56;5.73;;;1.90;;
23684;SDS011;12020;51.384;6.908;2023-03-11T05:03:32;3.63;;;1.60;;
23684;SDS011;12020;51.384;6.908;2023-03-11T05:05:57;6.13;;;1.83;;
23684;SDS011;12020;51.384;6.908;2023-03-11T05:08:24;3.20;;;2.00;;
23684;SDS011;12020;51.384;6.908;2023-03-11T05:10:51;3.80;;;1.90;;
23684;SDS011;12020;51.384;6.908;2023-03-11T05:13:19;5.63;;;1.80;;
23684;SDS011;12020;51.384;6.908;2023-03-11T05:15:45;4.67;;;1.90;;
23684;SDS011;12020;51.384;6.908;2023-03-11T05:18:15;3.90;;;1.87;;
23684;SDS011;12020;51.384;6.908;2023-03-11T05:20:43;7.27;;;2.00;;
23684;SDS011;12020;51.384;6.908;2023-03-11T05:23:12;4.93;;;1.90;;
23684;SDS011;12020;51.384;6.908;2023-03-11T05:25:41;6.70;;;2.13;;
23684;SDS011;12020;51.384;6.908;2023-03-11T05:28:07;6.20;;;2.37;;
23684;SDS011;12020;51.384;6.908;2023-03-11T05:30:35;5.60;;;2.23;;
23684;SDS011;12020;51.384;6.908;2023-03-11T05:33:01;6.67;;;1.90;;
23684;SDS011;12020;51.384;6.908;2023-03-11T05:35:28;5.73;;;1.73;;
23684;SDS011;12020;51.384;6.908;2023-03-11T05:37:57;8.50;;;2.20;;
23684;SDS011;12020;51.384;6.908;2023-03-11T05:40:23;8.23;;;2.20;;
23684;SDS011;12020;51.384;6.908;2023-03-11T05:42:51;5.10;;;1.97;;
23684;SDS011;12020;51.384;6.908;2023-03-11T05:45:17;6.93;;;2.20;;
23684;SDS011;12020;51.384;6.908;2023-03-11T05:50:14;4.50;;;1.90;;
23684;SDS011;12020;51.384;6.908;2023-03-11T05:55:15;11.70;;;2.47;;
23684;SDS011;12020;51.384;6.908;2023-03-11T05:57:42;4.73;;;2.17;;
23684;SDS011;12020;51.384;6.908;2023-03-11T06:00:10;8.83;;;2.30;;
23684;SDS011;12020;51.384;6.908;2023-03-11T06:02:43;5.40;;;2.10;;
23684;SDS011;12020;51.384;6.908;2023-03-11T06:05:11;5.57;;;2.00;;
23684;SDS011;12020;51.384;6.908;2023-03-11T06:07:37;8.30;;;2.30;;
23684;SDS011;12020;51.384;6.908;2023-03-11T06:10:05;9.43;;;2.70;;
23684;SDS011;12020;51.384;6.908;2023-03-11T06:12:39;8.77;;;2.07;;
23684;SDS011;12020;51.384;6.908;2023-03-11T06:15:05;5.83;;;2.10;;
23684;SDS011;12020;51.384;6.908;2023-03-11T06:20:01;5.10;;;2.20;;
23684;SDS011;12020;51.384;6.908;2023-03-11T06:22:28;8.57;;;2.27;;
23684;SDS011;12020;51.384;6.908;2023-03-11T06:24:54;8.63;;;2.37;;
23684;SDS011;12020;51.384;6.908;2023-03-11T06:27:20;8.40;;;2.42;;
23684;SDS011;12020;51.384;6.908;2023-03-11T06:29:50;7.22;;;2.60;;
23684;SDS011;12020;51.384;6.908;2023-03-11T06:32:16;8.05;;;2.85;;
23684;SDS011;12020;51.384;6.908;2023-03-11T06:34:48;5.68;;;2.45;;
23684;SDS011;12020;51.384;6.908;2023-03-11T06:37:15;5.53;;;2.40;;
23684;SDS011;12020;51.384;6.908;2023-03-11T06:39:42;8.85;;;2.85;;
23684;SDS011;12020;51.384;6.908;2023-03-11T06:52:29;7.38;;;2.45;;
23684;SDS011;12020;51.384;6.908;2023-03-11T06:57:28;5.13;;;2.15;;
23684;SDS011;12020;51.384;6.908;2023-03-11T07:02:44;3.97;;;1.90;;
23684;SDS011;12020;51.384;6.908;2023-03-11T07:05:10;5.00;;;1.67;;
23684;SDS011;12020;51.384;6.908;2023-03-11T07:07:36;4.90;;;1.83;;
23684;SDS011;12020;51.384;6.908;2023-03-11T07:10:02;5.67;;;2.00;;
23684;SDS011;12020;51.384;6.908;2023-03-11T07:12:39;4.78;;;2.20;;
23684;SDS011;12020;51.384;6.908;2023-03-11T07:15:11;6.53;;;2.15;;
23684;SDS011;12020;51.384;6.908;2023-03-11T07:17:37;5.70;;;1.85;;
23684;SDS011;12020;51.384;6.908;2023-03-11T07:20:18;6.73;;;2.30;;
23684;SDS011;12020;51.384;6.908;2023-03-11T07:22:44;4.30;;;2.15;;
23684;SDS011;12020;51.384;6.908;2023-03-11T07:25:11;7.72;;;2.78;;
23684;SDS011;12020;51.384;6.908;2023-03-11T07:27:37;5.53;;;2.40;;
23684;SDS011;12020;51.384;6.908;2023-03-11T07:32:34;5.32;;;1.98;;
23684;SDS011;12020;51.384;6.908;2023-03-11T07:35:00;7.00;;;2.40;;
23684;SDS011;12020;51.384;6.908;2023-03-11T18:58:58;7.00;;;2.73;;
23684;SDS011;12020;51.384;6.908;2023-03-11T19:01:24;3.97;;;2.83;;
23684;SDS011;12020;51.384;6.908;2023-03-11T19:03:52;6.97;;;3.00;;
23684;SDS011;12020;51.384;6.908;2023-03-11T19:06:20;4.90;;;3.33;;
23684;SDS011;12020;51.384;6.908;2023-03-11T19:08:47;5.90;;;3.37;;
23684;SDS011;12020;51.384;6.908;2023-03-11T19:11:14;5.10;;;3.07;;
23684;SDS011;12020;51.384;6.908;2023-03-11T19:13:41;5.80;;;3.63;;
23684;SDS011;12020;51.384;6.908;2023-03-11T19:16:08;7.97;;;3.60;;
23684;SDS011;12020;51.384;6.908;2023-03-11T19:18:35;8.17;;;3.80;;
23684;SDS011;12020;51.384;6.908;2023-03-11T19:21:02;8.40;;;3.83;;
23684;SDS011;12020;51.384;6.908;2023-03-11T19:23:29;9.17;;;4.60;;
23684;SDS011;12020;51.384;6.908;2023-03-11T19:25:56;6.57;;;4.40;;
23684;SDS011;12020;51.384;6.908;2023-03-11T19:28:22;9.67;;;4.97;;
23684;SDS011;12020;51.384;6.908;2023-03-11T19:30:51;5.73;;;3.97;;
23684;SDS011;12020;51.384;6.908;2023-03-11T19:33:18;6.93;;;4.57;;
23684;SDS011;12020;51.384;6.908;2023-03-11T19:35:49;5.80;;;4.37;;
23684;SDS011;12020;51.384;6.908;2023-03-11T19:38:18;7.53;;;4.90;;
23684;SDS011;12020;51.384;6.908;2023-03-11T19:40:44;9.53;;;5.23;;
23684;SDS011;12020;51.384;6.908;2023-03-11T19:43:10;9.57;;;6.43;;
23684;SDS011;12020;51.384;6.908;2023-03-11T19:45:37;10.90;;;6.60;;
23684;SDS011;12020;51.384;6.908;2023-03-11T19:48:03;7.27;;;6.10;;
23684;SDS011;12020;51.384;6.908;2023-03-11T19:50:29;11.57;;;6.10;;
23684;SDS011;12020;51.384;6.908;2023-03-11T19:52:55;9.73;;;6.07;;
23684;SDS011;12020;51.384;6.908;2023-03-11T19:55:22;10.17;;;6.67;;
23684;SDS011;12020;51.384;6.908;2023-03-11T19:57:49;9.10;;;6.20;;
23684;SDS011;12020;51.384;6.908;2023-03-11T20:00:15;9.20;;;6.80;;
23684;SDS011;12020;51.384;6.908;2023-03-11T20:02:41;12.13;;;7.00;;
23684;SDS011;12020;51.384;6.908;2023-03-11T20:05:07;10.03;;;6.97;;
23684;SDS011;12020;51.384;6.908;2023-03-11T20:07:33;12.13;;;7.13;;
23684;SDS011;12020;51.384;6.908;2023-03-11T20:09:58;11.03;;;6.47;;
23684;SDS011;12020;51.384;6.908;2023-03-11T20:12:24;10.80;;;7.10;;
23684;SDS011;12020;51.384;6.908;2023-03-11T20:14:50;12.40;;;7.30;;
23684;SDS011;12020;51.384;6.908;2023-03-11T20:17:15;9.60;;;7.30;;
23684;SDS011;12020;51.384;6.908;2023-03-11T20:19:41;8.70;;;7.07;;
23684;SDS011;12020;51.384;6.908;2023-03-11T20:22:07;9.67;;;6.87;;
23684;SDS011;12020;51.384;6.908;2023-03-11T20:24:32;9.57;;;6.60;;
23684;SDS011;12020;51.384;6.908;2023-03-11T20:26:58;9.80;;;6.70;;
23684;SDS011;12020;51.384;6.908;2023-03-11T20:29:24;8.47;;;6.17;;
23684;SDS011;12020;51.384;6.908;2023-03-11T20:31:49;7.53;;;6.13;;
23684;SDS011;12020;51.384;6.908;2023-03-11T20:34:15;10.77;;;6.23;;
23684;SDS011;12020;51.384;6.908;2023-03-11T20:36:41;8.30;;;5.97;;
23684;SDS011;12020;51.384;6.908;2023-03-11T20:39:06;8.83;;;5.37;;
23684;SDS011;12020;51.384;6.908;2023-03-11T20:41:33;7.43;;;4.60;;
23684;SDS011;12020;51.384;6.908;2023-03-11T20:44:01;6.17;;;4.67;;
23684;SDS011;12020;51.384;6.908;2023-03-11T20:46:28;6.80;;;4.90;;
23684;SDS011;12020;51.384;6.908;2023-03-11T20:48:55;8.00;;;5.03;;
23684;SDS011;12020;51.384;6.908;2023-03-11T20:51:21;7.27;;;4.20;;
23684;SDS011;12020;51.384;6.908;2023-03-11T20:53:48;8.80;;;4.93;;
23684;SDS011;12020;51.384;6.908;2023-03-11T20:56:15;8.43;;;5.33;;
23684;SDS011;12020;51.384;6.908;2023-03-11T20:58:45;8.37;;;5.97;;
23684;SDS011;12020;51.384;6.908;2023-03-11T21:01:25;8.83;;;5.60;;
23684;SDS011;12020;51.384;6.908;2023-03-11T21:03:54;9.30;;;6.07;;
23684;SDS011;12020;51.384;6.908;2023-03-11T21:06:22;7.77;;;5.37;;
23684;SDS011;12020;51.384;6.908;2023-03-11T21:08:49;5.60;;;4.97;;
23684;SDS011;12020;51.384;6.908;2023-03-11T21:11:18;6.60;;;4.90;;
23684;SDS011;12020;51.384;6.908;2023-03-11T21:13:44;6.33;;;5.23;;
23684;SDS011;12020;51.384;6.908;2023-03-11T21:16:10;9.20;;;6.10;;
23684;SDS011;12020;51.384;6.908;2023-03-11T21:18:35;8.50;;;5.77;;
23684;SDS011;12020;51.384;6.908;2023-03-11T21:21:01;8.17;;;5.20;;
23684;SDS011;12020;51.384;6.908;2023-03-11T21:23:28;8.77;;;5.30;;
23684;SDS011;12020;51.384;6.908;2023-03-11T21:25:58;8.57;;;4.80;;
23684;SDS011;12020;51.384;6.908;2023-03-11T21:28:24;6.23;;;4.93;;
23684;SDS011;12020;51.384;6.908;2023-03-11T21:30:59;7.50;;;4.50;;
23684;SDS011;12020;51.384;6.908;2023-03-11T21:33:29;6.67;;;4.10;;
23684;SDS011;12020;51.384;6.908;2023-03-11T21:35:56;8.90;;;4.37;;
23684;SDS011;12020;51.384;6.908;2023-03-11T21:38:23;7.83;;;4.60;;
23684;SDS011;12020;51.384;6.908;2023-03-11T21:40:49;7.53;;;5.25;;
23684;SDS011;12020;51.384;6.908;2023-03-11T21:43:15;8.45;;;6.13;;
23684;SDS011;12020;51.384;6.908;2023-03-11T21:45:42;8.73;;;6.05;;
23684;SDS011;12020;51.384;6.908;2023-03-11T21:48:08;6.97;;;5.45;;
23684;SDS011;12020;51.384;6.908;2023-03-11T21:50:35;9.07;;;5.38;;
23684;SDS011;12020;51.384;6.908;2023-03-11T21:53:02;7.57;;;5.60;;
23684;SDS011;12020;51.384;6.908;2023-03-11T21:55:28;9.73;;;5.45;;
23684;SDS011;12020;51.384;6.908;2023-03-11T21:57:54;8.38;;;5.65;;
23684;SDS011;12020;51.384;6.908;2023-03-11T22:00:19;9.18;;;5.70;;
23684;SDS011;12020;51.384;6.908;2023-03-11T22:02:47;9.13;;;5.82;;
23684;SDS011;12020;51.384;6.908;2023-03-11T22:05:12;8.35;;;5.50;;
23684;SDS011;12020;51.384;6.908;2023-03-11T22:07:39;7.03;;;5.10;;
23684;SDS011;12020;51.384;6.908;2023-03-11T22:10:05;7.70;;;5.35;;
23684;SDS011;12020;51.384;6.908;2023-03-11T22:12:32;6.93;;;5.57;;
23684;SDS011;12020;51.384;6.908;2023-03-11T22:14:58;7.43;;;5.43;;
23684;SDS011;12020;51.384;6.908;2023-03-11T22:17:25;9.32;;;5.40;;
23684;SDS011;12020;51.384;6.908;2023-03-11T22:19:50;7.35;;;5.38;;
23684;SDS011;12020;51.384;6.908;2023-03-11T22:22:17;6.13;;;5.18;;
23684;SDS011;12020;51.384;6.908;2023-03-11T22:24:42;6.47;;;5.00;;
23684;SDS011;12020;51.384;6.908;2023-03-11T22:27:08;8.48;;;5.10;;
23684;SDS011;12020;51.384;6.908;2023-03-11T22:29:35;6.63;;;4.70;;
23684;SDS011;12020;51.384;6.908;2023-03-11T22:32:02;7.20;;;5.53;;
23684;SDS011;12020;51.384;6.908;2023-03-11T22:34:28;7.88;;;5.70;;
23684;SDS011;12020;51.384;6.908;2023-03-11T22:36:54;7.00;;;5.37;;
23684;SDS011;12020;51.384;6.908;2023-03-11T22:39:19;6.37;;;5.53;;
23684;SDS011;12020;51.384;6.908;2023-03-11T22:41:46;7.37;;;5.27;;
23684;SDS011;12020;51.384;6.908;2023-03-11T22:44:11;6.90;;;5.30;;
23684;SDS011;12020;51.384;6.908;2023-03-11T22:46:37;8.20;;;5.77;;
23684;SDS011;12020;51.384;6.908;2023-03-11T22:49:02;9.13;;;4.80;;
23684;SDS011;12020;51.384;6.908;2023-03-11T22:51:28;6.83;;;4.97;;
23684;SDS011;12020;51.384;6.908;2023-03-11T22:53:54;7.97;;;4.90;;
23684;SDS011;12020;51.384;6.908;2023-03-11T22:56:19;8.02;;;5.00;;
23684;SDS011;12020;51.384;6.908;2023-03-11T22:58:48;7.20;;;5.35;;
23684;SDS011;12020;51.384;6.908;2023-03-11T23:01:15;7.03;;;5.60;;
23684;SDS011;12020;51.384;6.908;2023-03-11T23:03:41;8.27;;;5.55;;
23684;SDS011;12020;51.384;6.908;2023-03-11T23:06:07;8.88;;;5.18;;
23684;SDS011;12020;51.384;6.908;2023-03-11T23:08:35;8.68;;;5.20;;
23684;SDS011;12020;51.384;6.908;2023-03-11T23:11:04;8.73;;;5.50;;
23684;SDS011;12020;51.384;6.908;2023-03-11T23:13:32;8.80;;;5.53;;
23684;SDS011;12020;51.384;6.908;2023-03-11T23:16:04;11.02;;;5.70;;
23684;SDS011;12020;51.384;6.908;2023-03-11T23:18:31;6.78;;;5.13;;
23684;SDS011;12020;51.384;6.908;2023-03-11T23:20:57;7.38;;;5.00;;
23684;SDS011;12020;51.384;6.908;2023-03-11T23:23:24;8.82;;;5.15;;
23684;SDS011;12020;51.384;6.908;2023-03-11T23:25:50;8.52;;;5.40;;
23684;SDS011;12020;51.384;6.908;2023-03-11T23:28:15;8.50;;;5.20;;
23684;SDS011;12020;51.384;6.908;2023-03-11T23:30:41;9.03;;;5.30;;
23684;SDS011;12020;51.384;6.908;2023-03-11T23:33:07;7.50;;;5.10;;
23684;SDS011;12020;51.384;6.908;2023-03-11T23:35:32;6.67;;;4.93;;
23684;SDS011;12020;51.384;6.908;2023-03-11T23:37:58;6.77;;;4.83;;
23684;SDS011;12020;51.384;6.908;2023-03-11T23:40:24;9.20;;;4.93;;
23684;SDS011;12020;51.384;6.908;2023-03-11T23:42:50;6.45;;;4.95;;
23684;SDS011;12020;51.384;6.908;2023-03-11T23:45:16;7.70;;;4.65;;
23684;SDS011;12020;51.384;6.908;2023-03-11T23:47:41;7.30;;;5.00;;
23684;SDS011;12020;51.384;6.908;2023-03-11T23:50:07;6.77;;;4.73;;
23684;SDS011;12020;51.384;6.908;2023-03-11T23:52:33;7.70;;;4.75;;
23684;SDS011;12020;51.384;6.908;2023-03-11T23:54:59;6.50;;;4.45;;
23684;SDS011;12020;51.384;6.908;2023-03-11T23:57:25;7.57;;;4.87;;
23684;SDS011;12020;51.384;6.908;2023-03-11T23:59:51;6.05;;;4.22;;
